Impacts METAR Board
IDs:

KJFK - New York/Kennedy Int, NY, US

Updated at: 1500 UTC 23 Jun 2018
Potential Impact None Slight Moderate High
Time 23/03Z 23/04Z 23/05Z 23/06Z 23/07Z 23/08Z 23/09Z 23/10Z 23/11Z 23/12Z 23/13Z 23/14Z 23/15Z
Temp65 64 63 63 63 64 64 64 63 63 63 64 65
Dewpt62 62 62 61 60 58 55 55 59 59 60 61 62
Altim30.01 30.00 29.97 29.96 29.95 29.92 29.92 29.91 29.89 29.90 29.88 29.88 29.87
VIS10 10 10 10 10 10 10 10 10 10 10 9 10
CIG36 90 36 30 25 24 25 18 15 13 12 12 13
CoverOVCOVCOVCOVCOVCOVCOVCOVCOVCOVCOVCOVCOVC
FltCatVFRVFRVFRMVFRMVFRMVFRMVFRMVFRMVFRMVFRMVFRMVFRMVFR
WX---RA-----------------DZ----
WDir90605040505080506060605040
WSpd6 7 10 9 8 8 11 7 13 11 9 11 10
WGst-- -- -- -- -- -- -- -- -- -- -- -- --
Raw hourly METARs
KJFK 230251Z 09006KT 10SM BKN036 BKN095 OVC130 18/17 A3001 RMK AO2 RAB06E33 SLP163 P0000 60000 T01830167 53002
KJFK 230351Z 06007KT 10SM -RA SCT036 BKN090 OVC130 18/17 A3000 RMK AO2 RAB05 SLP157 P0003 T01780167
KJFK 230451Z 05010KT 10SM BKN036 BKN065 OVC080 17/17 A2997 RMK AO2 RAE15 SLP148 P0001 T01720167 402170172
KJFK 230551Z 04009KT 10SM BKN030 BKN060 OVC080 17/16 A2996 RMK AO2 PRESFR SLP143 60004 T01720161 10189 20172 56019
KJFK 230651Z 05008KT 10SM BKN025 OVC060 17/16 A2995 RMK AO2 SLP140 T01720156
KJFK 230751Z 05008KT 10SM OVC024 18/14 A2992 RMK AO2 SLP131 T01780144
KJFK 230851Z 08011KT 10SM BKN025 OVC037 18/13 A2992 RMK AO2 SLP130 T01780128 56010
KJFK 230951Z 05007KT 10SM OVC018 18/13 A2991 RMK AO2 RAB0853E23 SLP127 P0000 T01780128
KJFK 231051Z 06013KT 10SM FEW011 OVC015 17/15 A2989 RMK AO2 SLP122 T01720150
KJFK 231151Z 06011KT 10SM OVC013 17/15 A2990 RMK AO2 SLP124 60000 70004 T01720150 10183 20172 55006
KJFK 231251Z 06009KT 10SM -DZ OVC012 17/16 A2988 RMK AO2 DZB48 SLP119 P0000 T01720156
KJFK 231351Z 05011KT 9SM OVC012 18/16 A2988 RMK AO2 DZE08 SLP117 P0000 T01780161
KJFK 231451Z 04010KT 10SM OVC013 18/17 A2987 RMK AO2 SLP114 60000 T01830167 56010



Page loaded:  15:30 UTC  |   08:30 AM Pacific  |   09:30 AM Mountain  |   10:30 AM Central  |   11:30 AM Eastern

 

ADVISORIES

FORECASTS

FORECASTS

OBSERVATIONS

USER TOOLS

ABOUT US